• Join FlightAware (Why Join?)
  • Login
  • US Flag 
01:36AM EDT


 

Airport Tracker/Info


-or-


 

Live Flight TrackerFlight Track Log ✈ FDX437 ✈ 27-Apr-2013 ✈ KCLE - KLCK

Flight Track Log - Related Links

Times and Time Zones

All times are in EDT time to prevent confusion due to time zone crossing. See the FDX437 flight status page for this flight to view local times or setup timezone preferences in your user account.

Time Position Orientation Groundspeed Altitude Reporting Facility
EDT Latitude Longitude Course Direction KTS MPH feet Rate Location/Type
09:02AM 41.3840 -81.8780 210° Southwest 2,800  Level FlightAware
09:02AM 41.3570 -81.8930 203° Southwest 3,800 540 Climbing FlightAware
09:03AM 41.3370 -81.9050 204° Southwest 5,200 480 Climbing FlightAware
09:03AM 41.3060 -81.9220 202° Southwest 7,600 420 Climbing FlightAware
09:04AM 41.2490 -81.9400 193° South 11,100 180 Climbing FlightAware
09:04AM 41.1990 -81.9550 193° South 11,600 -120 Climbing FlightAware
09:05AM 41.1340 -81.9730 192° South 11,600 -180 Level FlightAware
09:06AM 41.0690 -81.9920 192° South 11,600 -240 Level FlightAware
09:06AM 41.0110 -82.0080 192° South 11,900 -240 Climbing FlightAware
09:07AM 40.9490 -82.0260 192° South 12,600 -300 Climbing FlightAware
09:08AM 40.8940 -82.0510 199° South 12,600 -420 Level FlightAware
09:09AM 40.8440 -82.0870 209° Southwest 12,600 -480 Level FlightAware
09:09AM 40.7950 -82.1240 210° Southwest 12,600 -540 Level FlightAware
09:10AM 40.7510 -82.1570 210° Southwest 12,600 -600 Level FlightAware
09:11AM 40.6950 -82.1980 209° Southwest 11,100 -660 Descending FlightAware
09:11AM 40.6390 -82.2370 208° Southwest 9,800 -360 Descending FlightAware
09:12AM 40.6200 -82.2510 209° Southwest 9,600 60 Descending FlightAware
09:12AM 40.5660 -82.2850 206° Southwest 9,600 120 Level FlightAware
09:13AM 40.5350 -82.3030 204° Southwest 9,600 180 Level FlightAware
09:13AM 40.5090 -82.3180 204° Southwest 9,700 300 Climbing FlightAware
09:14AM 40.4331 -82.3617 204° Southwest 310 357 10,000 120 Climbing Indianapolis Center
09:15AM 40.3547 -82.4092 205° Southwest 307 353 10,000  Level Indianapolis Center
09:16AM 40.2764 -82.4533 203° Southwest 306 352 10,000 -840 Level Indianapolis Center
09:17AM 40.2019 -82.4986 205° Southwest 282 325 8,400 -1,440 Descending Indianapolis Center
09:18AM 40.1336 -82.5408 205° Southwest 270 311 7,100 -900 Descending Indianapolis Center
09:19AM 40.0703 -82.5828 207° Southwest 266 306 6,700 -540 Descending Indianapolis Center
09:20AM 39.9983 -82.6267 205° Southwest 267 307 6,100 -960 Descending Indianapolis Center
09:21AM 39.9306 -82.6708 207° Southwest 267 307 4,700 -1,440 Descending Indianapolis Center
09:22AM 39.9000 -82.7517 244° Southwest 266 306 3,200 -1,020 Descending Indianapolis Center
09:23AM 39.8842 -82.8278 255° West 224 258 2,700 -780 Descending Indianapolis Center
09:24AM 39.8567 -82.8692 229° Southwest 154 177 1,800 -900 Descending Indianapolis Center
09:25AM 39.8261 -82.9069 224° Southwest 150 173 900 -780 Descending Indianapolis Center
09:27AM 39.8000 -82.9167 207° Southwest  Level FlightAware Approximate
09:34AM 39.8138 -82.9278 207° Southwest  Level Estimated